Time;durP1;ratioP1;P1;durP2;ratioP2;P2;SDS_P1;SDS_P2;PMS_P1;PMS_P2;Temp;Humidity;BMP_temperature;BMP_pressure;BME280_temperature;BME280_humidity;BME280_pressure;Samples;Min_cycle;Max_cycle;Signal;HPM_P1;HPM_P2
2022/07/24 00:01:36;;;;;;;5.90;3.75;;;18.20;99.90;;;;;;5028140;28;20029;-71
2022/07/24 00:04:06;;;;;;;5.68;3.47;;;18.10;99.90;;;;;;5009771;28;20644;-72
2022/07/24 00:06:32;;;;;;;;;;;18.20;99.90;;;;;;5030211;28;20040;-71
2022/07/24 00:08:58;;;;;;;11.20;3.80;;;18.20;99.90;;;;;;5027533;28;19920;-70
2022/07/24 00:11:23;;;;;;;7.05;3.83;;;18.20;99.90;;;;;;5010397;28;20033;-71
2022/07/24 00:13:49;;;;;;;6.97;3.70;;;18.20;99.90;;;;;;5017862;28;20029;-71
2022/07/24 00:16:15;;;;;;;5.90;3.22;;;18.20;99.90;;;;;;5033494;28;20143;-71
2022/07/24 00:18:40;;;;;;;7.55;3.72;;;18.20;99.90;;;;;;5022261;28;20116;-72
2022/07/24 00:21:06;;;;;;;6.55;3.95;;;18.20;99.90;;;;;;5010716;28;20762;-71
2022/07/24 00:23:32;;;;;;;7.13;3.60;;;18.20;99.90;;;;;;5021923;28;20025;-71
2022/07/24 00:25:58;;;;;;;6.88;3.92;;;18.20;99.90;;;;;;5033466;28;20470;-70
2022/07/24 00:28:24;;;;;;;7.22;3.60;;;18.20;99.90;;;;;;5012643;28;20044;-71
2022/07/24 00:30:49;;;;;;;6.35;3.80;;;18.30;99.90;;;;;;5029284;28;20037;-71
2022/07/24 00:33:15;;;;;;;8.27;3.60;;;18.30;99.90;;;;;;5029927;28;20403;-71
2022/07/24 00:35:41;;;;;;;7.10;3.67;;;18.30;99.90;;;;;;5029143;28;20025;-70
2022/07/24 00:38:07;;;;;;;7.05;3.38;;;18.30;99.90;;;;;;5022082;28;20037;-70
2022/07/24 00:40:33;;;;;;;7.25;3.90;;;18.20;99.90;;;;;;5015381;28;20459;-71
2022/07/24 00:42:59;;;;;;;6.28;3.70;;;18.20;99.90;;;;;;5032398;28;20083;-72
2022/07/24 00:45:24;;;;;;;6.45;3.67;;;18.20;99.90;;;;;;5036878;28;20376;-71
2022/07/24 00:47:52;;;;;;;9.85;4.47;;;18.20;99.90;;;;;;5033666;28;20048;-71
2022/07/24 00:50:17;;;;;;;7.22;4.10;;;18.20;99.90;;;;;;5033150;28;20036;-71
2022/07/24 00:52:45;;;;;;;5.68;3.50;;;18.20;99.90;;;;;;5033215;28;20026;-71
2022/07/24 00:55:11;;;;;;;7.63;3.92;;;18.20;99.90;;;;;;5030599;28;20033;-71
2022/07/24 00:57:37;;;;;;;9.50;4.30;;;18.20;99.90;;;;;;5010192;28;20037;-71
2022/07/24 01:00:08;;;;;;;7.90;3.70;;;18.20;99.90;;;;;;5029834;28;20032;-70
2022/07/24 01:02:34;;;;;;;8.88;3.70;;;18.20;99.90;;;;;;5034052;28;20040;-70
2022/07/24 01:05:00;;;;;;;6.80;3.90;;;18.10;99.90;;;;;;5028955;28;20033;-71
2022/07/24 01:07:26;;;;;;;8.52;3.80;;;18.20;99.90;;;;;;5036282;28;20759;-70
2022/07/24 01:09:52;;;;;;;6.60;4.00;;;18.10;99.90;;;;;;5033239;28;20116;-71
2022/07/24 01:12:18;;;;;;;6.60;3.58;;;18.10;99.90;;;;;;5028002;28;20048;-70
2022/07/24 01:14:44;;;;;;;6.75;3.35;;;18.20;99.90;;;;;;5036457;28;20033;-72
2022/07/24 01:17:10;;;;;;;5.35;3.45;;;18.20;99.90;;;;;;5039415;28;20044;-71
2022/07/24 01:19:36;;;;;;;7.93;3.70;;;18.10;99.90;;;;;;5029241;28;20029;-71
2022/07/24 01:22:02;;;;;;;5.82;3.33;;;18.10;99.90;;;;;;5014876;28;20037;-71
2022/07/24 01:24:28;;;;;;;6.40;3.67;;;18.10;99.90;;;;;;5025301;28;20052;-71
2022/07/24 01:26:54;;;;;;;7.82;3.35;;;18.00;99.90;;;;;;5030294;28;20123;-71
2022/07/24 01:29:20;;;;;;;6.15;3.50;;;18.00;99.90;;;;;;5036247;28;20037;-72
2022/07/24 01:31:46;;;;;;;7.90;3.50;;;18.00;99.90;;;;;;5033839;28;20078;-72
2022/07/24 01:34:12;;;;;;;7.75;3.42;;;18.00;99.90;;;;;;5023649;28;20495;-72
2022/07/24 01:36:38;;;;;;;8.40;4.22;;;17.90;99.90;;;;;;5030613;28;20308;-72
2022/07/24 01:39:04;;;;;;;9.27;3.78;;;17.90;99.90;;;;;;5015501;28;20478;-73
2022/07/24 01:41:30;;;;;;;5.95;3.47;;;17.90;99.90;;;;;;5026593;28;20586;-69
2022/07/24 01:43:56;;;;;;;11.25;3.80;;;17.80;99.90;;;;;;5025564;28;20029;-70
2022/07/24 01:46:22;;;;;;;7.40;3.80;;;17.80;99.90;;;;;;5034001;28;20754;-71
2022/07/24 01:48:48;;;;;;;6.57;3.53;;;17.70;99.90;;;;;;5024261;28;20088;-70
2022/07/24 01:51:13;;;;;;;7.57;3.65;;;17.70;99.90;;;;;;5028710;28;20472;-71
2022/07/24 01:53:39;;;;;;;6.13;3.47;;;17.70;99.90;;;;;;5037180;28;20108;-71
2022/07/24 01:56:05;;;;;;;7.78;3.72;;;17.70;99.90;;;;;;5022242;28;20033;-71
2022/07/24 01:58:31;;;;;;;7.25;3.65;;;17.70;99.90;;;;;;5026054;28;20463;-70
2022/07/24 02:00:56;;;;;;;6.38;3.65;;;17.60;99.90;;;;;;5027467;28;20029;-71
2022/07/24 02:03:22;;;;;;;7.15;3.90;;;17.70;99.90;;;;;;5030727;28;20524;-70
2022/07/24 02:05:48;;;;;;;9.48;4.20;;;17.70;99.90;;;;;;5009546;28;20037;-71
2022/07/24 02:08:13;;;;;;;7.82;4.07;;;17.60;99.90;;;;;;5022721;28;20034;-70
2022/07/24 02:10:39;;;;;;;7.80;4.18;;;17.60;99.90;;;;;;5025772;28;20103;-71
2022/07/24 02:13:05;;;;;;;7.15;3.72;;;17.60;99.90;;;;;;5000696;28;20549;-72
2022/07/24 02:15:31;;;;;;;6.28;3.90;;;17.60;99.90;;;;;;4999316;28;20029;-72
2022/07/24 02:18:00;;;;;;;6.55;3.78;;;17.60;99.90;;;;;;5021233;28;20041;-72
2022/07/24 02:20:26;;;;;;;9.75;3.63;;;17.60;99.90;;;;;;5027804;28;20036;-71
2022/07/24 02:22:52;;;;;;;7.05;3.83;;;17.60;99.90;;;;;;5027349;28;20029;-70
2022/07/24 02:25:18;;;;;;;7.50;4.13;;;17.60;99.90;;;;;;5024024;28;20785;-71
2022/07/24 02:27:44;;;;;;;6.38;3.65;;;17.60;99.90;;;;;;5034326;28;20053;-70
2022/07/24 02:30:16;;;;;;;7.43;3.65;;;17.60;99.90;;;;;;5036186;28;20748;-70
2022/07/24 02:32:42;;;;;;;5.25;3.50;;;17.50;99.90;;;;;;5034001;28;20113;-70
2022/07/24 02:35:09;;;;;;;5.70;3.22;;;17.50;99.90;;;;;;5040006;28;20142;-71
2022/07/24 02:37:39;;;;;;;7.53;3.92;;;17.60;99.90;;;;;;5041812;28;20029;-71
2022/07/24 02:40:06;;;;;;;7.32;3.58;;;17.60;99.90;;;;;;5035766;28;20029;-71
2022/07/24 02:42:32;;;;;;;7.40;3.67;;;17.50;99.90;;;;;;5040670;28;20032;-70
2022/07/24 02:44:58;;;;;;;8.73;3.42;;;17.50;99.90;;;;;;5036585;28;20029;-70
2022/07/24 02:47:23;;;;;;;6.85;3.60;;;17.50;99.90;;;;;;5049740;28;20041;-70
2022/07/24 02:49:49;;;;;;;6.28;3.80;;;17.60;99.90;;;;;;5043720;28;20232;-70
2022/07/24 02:52:15;;;;;;;9.32;4.10;;;17.60;99.90;;;;;;5035908;28;20716;-71
2022/07/24 02:54:41;;;;;;;5.60;3.33;;;17.60;99.90;;;;;;5037965;28;20163;-71
2022/07/24 02:57:06;;;;;;;6.65;3.65;;;17.60;99.90;;;;;;5042140;28;20032;-70
2022/07/24 02:59:32;;;;;;;7.30;3.63;;;17.60;99.90;;;;;;5040387;28;20029;-71
2022/07/24 03:01:58;;;;;;;6.30;3.38;;;17.60;99.90;;;;;;5036064;28;20041;-70
2022/07/24 03:04:23;;;;;;;7.50;3.80;;;17.60;99.90;;;;;;5039080;28;20040;-72
2022/07/24 03:06:49;;;;;;;5.80;3.40;;;17.60;99.90;;;;;;5041719;28;20127;-72
2022/07/24 03:09:15;;;;;;;7.30;3.75;;;17.60;99.90;;;;;;5042966;28;20041;-71
2022/07/24 03:11:41;;;;;;;7.22;3.75;;;17.60;99.90;;;;;;5045197;28;20032;-70
2022/07/24 03:14:06;;;;;;;7.78;3.35;;;17.60;99.90;;;;;;5043377;28;20029;-70
2022/07/24 03:16:32;;;;;;;6.30;3.75;;;17.60;99.90;;;;;;5044185;28;20394;-71
2022/07/24 03:18:58;;;;;;;6.75;3.97;;;17.50;99.90;;;;;;5043830;28;20033;-70
2022/07/24 03:21:24;;;;;;;7.15;4.10;;;17.60;99.90;;;;;;5040666;28;20059;-71
2022/07/24 03:23:49;;;;;;;7.45;3.78;;;17.50;99.90;;;;;;5032525;28;20029;-71
2022/07/24 03:26:15;;;;;;;7.57;3.92;;;17.50;99.90;;;;;;5036907;28;20048;-71
2022/07/24 03:28:41;;;;;;;7.60;4.05;;;17.50;99.90;;;;;;5043336;28;20044;-70
2022/07/24 03:31:06;;;;;;;6.97;3.90;;;17.50;99.90;;;;;;5035324;28;20094;-71
2022/07/24 03:33:33;;;;;;;8.05;4.13;;;17.40;99.90;;;;;;5034341;28;20040;-71
2022/07/24 03:35:59;;;;;;;8.30;4.18;;;17.40;99.90;;;;;;5035318;28;20260;-71
2022/07/24 03:38:25;;;;;;;6.35;3.78;;;17.40;99.90;;;;;;5038778;28;20033;-70
2022/07/24 03:40:51;;;;;;;6.97;4.07;;;17.40;99.90;;;;;;5042479;28;20021;-70
2022/07/24 03:43:17;;;;;;;7.22;4.13;;;17.40;99.90;;;;;;5039585;28;20025;-70
2022/07/24 03:45:43;;;;;;;10.07;4.47;;;17.40;99.90;;;;;;5038961;28;20021;-71
2022/07/24 03:48:09;;;;;;;7.85;4.10;;;17.40;99.90;;;;;;5028255;28;20052;-71
2022/07/24 03:50:35;;;;;;;9.88;4.10;;;17.40;99.90;;;;;;5037050;28;20032;-71
2022/07/24 03:53:01;;;;;;;5.85;3.85;;;17.40;99.90;;;;;;5036897;28;20040;-71
2022/07/24 03:55:27;;;;;;;7.65;4.20;;;17.40;99.90;;;;;;5027617;28;20033;-71
2022/07/24 03:57:52;;;;;;;9.00;4.80;;;17.40;99.90;;;;;;5028146;28;20036;-71
2022/07/24 04:00:18;;;;;;;7.18;3.88;;;17.40;99.90;;;;;;5035424;28;20040;-70
2022/07/24 04:02:43;;;;;;;6.68;3.90;;;17.40;99.90;;;;;;5049046;28;20082;-71
2022/07/24 04:05:10;;;;;;;6.68;3.95;;;17.40;99.90;;;;;;5041528;28;20025;-71
2022/07/24 04:07:36;;;;;;;7.35;3.53;;;17.40;99.90;;;;;;5041821;28;20510;-71
2022/07/24 04:10:04;;;;;;;6.03;3.70;;;17.40;99.90;;;;;;5032640;28;20033;-71
2022/07/24 04:12:29;;;;;;;9.05;3.92;;;17.40;99.90;;;;;;5036070;28;20169;-71
2022/07/24 04:14:55;;;;;;;8.23;3.97;;;17.40;99.90;;;;;;5039326;28;20037;-71
2022/07/24 04:17:21;;;;;;;7.07;3.70;;;17.30;99.90;;;;;;5044067;28;20041;-71
2022/07/24 04:19:46;;;;;;;6.38;3.50;;;17.40;99.90;;;;;;5037980;28;20029;-71
2022/07/24 04:22:12;;;;;;;7.20;3.20;;;17.40;99.90;;;;;;5043558;28;20109;-70
2022/07/24 04:24:38;;;;;;;7.80;3.65;;;17.40;99.90;;;;;;5040020;28;20037;-71
2022/07/24 04:27:03;;;;;;;6.68;3.40;;;17.40;99.90;;;;;;5034652;28;20488;-70
2022/07/24 04:29:29;;;;;;;9.23;4.30;;;17.40;99.90;;;;;;5010180;28;20373;-71
2022/07/24 04:31:55;;;;;;;7.55;3.90;;;17.40;99.90;;;;;;5030208;28;20430;-72
2022/07/24 04:34:21;;;;;;;6.72;3.58;;;17.40;99.90;;;;;;5030882;28;20033;-72
2022/07/24 04:36:47;;;;;;;6.07;3.72;;;17.40;99.90;;;;;;5033653;28;20036;-72
2022/07/24 04:39:12;;;;;;;7.03;3.95;;;17.40;99.90;;;;;;5027213;28;21781;-72
2022/07/24 04:41:38;;;;;;;8.45;3.60;;;17.40;99.90;;;;;;5013818;28;20061;-72
2022/07/24 04:44:04;;;;;;;5.45;3.03;;;17.40;99.90;;;;;;5029321;28;20030;-71
2022/07/24 04:46:30;;;;;;;6.43;3.10;;;17.40;99.90;;;;;;5016526;28;20074;-71
2022/07/24 04:48:55;;;;;;;6.80;3.28;;;17.50;99.90;;;;;;5032645;28;20122;-71
2022/07/24 04:51:21;;;;;;;6.50;3.13;;;17.50;99.90;;;;;;5026633;28;20037;-72
2022/07/24 04:53:47;;;;;;;6.78;3.40;;;17.50;99.90;;;;;;5032289;28;20048;-71
2022/07/24 04:56:13;;;;;;;7.00;3.10;;;17.50;99.90;;;;;;5027089;28;20057;-72
2022/07/24 04:58:39;;;;;;;6.07;3.20;;;17.60;99.90;;;;;;5009015;28;20087;-72
2022/07/24 05:01:04;;;;;;;5.15;3.00;;;17.60;99.90;;;;;;5028262;28;20022;-72
2022/07/24 05:03:30;;;;;;;4.82;2.95;;;17.70;99.90;;;;;;5029800;28;20030;-72
2022/07/24 05:05:55;;;;;;;4.68;2.88;;;17.70;99.90;;;;;;5038221;28;20029;-72
2022/07/24 05:08:21;;;;;;;6.93;3.28;;;17.70;99.90;;;;;;5024440;28;20045;-72
2022/07/24 05:10:47;;;;;;;5.90;3.35;;;17.80;99.90;;;;;;5024116;28;20041;-71
2022/07/24 05:13:13;;;;;;;5.63;2.95;;;17.70;99.90;;;;;;5011534;28;20040;-72
2022/07/24 05:15:38;;;;;;;6.95;3.30;;;17.80;99.90;;;;;;5025720;28;20029;-72
2022/07/24 05:18:04;;;;;;;5.20;2.88;;;17.70;99.90;;;;;;5032948;28;20046;-72
2022/07/24 05:20:30;;;;;;;8.18;3.05;;;17.80;99.90;;;;;;5030298;28;20083;-71
2022/07/24 05:22:55;;;;;;;5.55;2.90;;;17.70;99.90;;;;;;5030652;28;20029;-71
2022/07/24 05:25:21;;;;;;;4.38;2.72;;;17.70;99.90;;;;;;4997813;28;20048;-71
2022/07/24 05:27:47;;;;;;;5.82;2.88;;;17.80;99.90;;;;;;5039603;28;20053;-71
2022/07/24 05:30:13;;;;;;;4.13;2.47;;;17.80;99.90;;;;;;5043651;28;20163;-70
2022/07/24 05:32:38;;;;;;;5.80;2.60;;;17.80;99.90;;;;;;5039113;28;20040;-71
2022/07/24 05:35:05;;;;;;;5.05;2.85;;;17.90;99.90;;;;;;5044961;28;20025;-71
2022/07/24 05:37:30;;;;;;;5.60;2.53;;;17.90;99.90;;;;;;5042097;28;20041;-71
2022/07/24 05:39:56;;;;;;;6.60;2.70;;;17.90;99.90;;;;;;5040385;28;20064;-70
2022/07/24 05:42:22;;;;;;;4.35;2.92;;;17.90;99.90;;;;;;5037474;28;20037;-71
2022/07/24 05:44:47;;;;;;;5.80;2.90;;;18.00;99.90;;;;;;5039681;28;20446;-72
2022/07/24 05:47:13;;;;;;;6.25;2.97;;;18.10;99.90;;;;;;5037766;28;20123;-70
2022/07/24 05:49:39;;;;;;;9.23;3.20;;;18.10;99.90;;;;;;5043229;28;20036;-72
2022/07/24 05:52:04;;;;;;;6.70;3.30;;;18.20;99.90;;;;;;5044898;28;20163;-71
2022/07/24 05:54:30;;;;;;;9.15;2.90;;;18.30;99.90;;;;;;5046077;28;20112;-71
2022/07/24 05:56:56;;;;;;;5.60;2.72;;;18.40;99.90;;;;;;5044159;28;20037;-70
2022/07/24 05:59:21;;;;;;;7.55;2.45;;;18.40;99.90;;;;;;5042111;28;20040;-71
2022/07/24 06:01:47;;;;;;;5.22;2.70;;;18.50;99.90;;;;;;5035344;28;20556;-71
2022/07/24 06:04:13;;;;;;;4.60;2.60;;;18.60;99.90;;;;;;5043365;28;20395;-70
2022/07/24 06:06:38;;;;;;;7.75;3.25;;;18.60;99.90;;;;;;5038621;28;20111;-72
2022/07/24 06:09:04;;;;;;;5.50;2.45;;;18.60;99.90;;;;;;5033983;28;20402;-71
2022/07/24 06:11:30;;;;;;;5.45;2.80;;;18.70;99.90;;;;;;5039276;28;20501;-72
2022/07/24 06:13:56;;;;;;;5.95;3.05;;;18.70;99.90;;;;;;5045734;28;20494;-71
2022/07/24 06:16:22;;;;;;;5.50;2.88;;;18.80;99.90;;;;;;5037856;28;20033;-72
2022/07/24 06:18:47;;;;;;;4.82;2.60;;;18.90;99.90;;;;;;5038422;28;20106;-71
2022/07/24 06:21:13;;;;;;;5.45;2.90;;;19.00;99.90;;;;;;5039633;28;20072;-71
2022/07/24 06:23:39;;;;;;;4.93;2.80;;;19.10;99.90;;;;;;5041455;28;20032;-72
2022/07/24 06:26:04;;;;;;;6.40;3.33;;;19.10;99.90;;;;;;5044209;28;20646;-71
2022/07/24 06:28:30;;;;;;;5.35;2.88;;;19.10;99.90;;;;;;5049230;28;20041;-71
2022/07/24 06:30:57;;;;;;;4.85;2.55;;;19.10;99.90;;;;;;5038675;28;20037;-71
2022/07/24 06:33:22;;;;;;;7.00;2.53;;;19.20;99.90;;;;;;5047358;28;20071;-72
2022/07/24 06:35:48;;;;;;;7.25;2.70;;;19.20;99.90;;;;;;5018445;28;20112;-71
2022/07/24 06:38:15;;;;;;;4.90;2.58;;;19.20;99.90;;;;;;5045924;28;20124;-71
2022/07/24 06:40:41;;;;;;;5.38;2.45;;;19.30;99.90;;;;;;5038779;28;20029;-72
2022/07/24 06:43:07;;;;;;;4.75;2.63;;;19.30;99.90;;;;;;5039246;28;20036;-70
2022/07/24 06:45:32;;;;;;;3.83;2.53;;;19.40;99.90;;;;;;5036729;28;20458;-71
2022/07/24 06:48:01;;;;;;;5.95;2.53;;;19.50;99.90;;;;;;5038573;28;20781;-69
2022/07/24 06:50:28;;;;;;;4.70;2.60;;;19.50;99.90;;;;;;5041401;28;20391;-71
2022/07/24 06:52:54;;;;;;;5.53;2.80;;;19.60;99.90;;;;;;5043973;28;20037;-71
2022/07/24 06:55:20;;;;;;;5.68;2.63;;;19.60;99.90;;;;;;5041269;28;20036;-70
2022/07/24 06:57:46;;;;;;;5.18;2.42;;;19.70;99.90;;;;;;5040104;28;20048;-71
2022/07/24 07:00:12;;;;;;;5.03;2.35;;;19.80;99.90;;;;;;5027417;28;20056;-71
2022/07/24 07:02:38;;;;;;;5.53;2.45;;;19.90;99.90;;;;;;5044620;28;20064;-72
2022/07/24 07:05:05;;;;;;;5.10;2.15;;;19.90;99.90;;;;;;5037932;28;20033;-70
2022/07/24 07:07:31;;;;;;;4.90;2.20;;;20.00;99.90;;;;;;5038586;28;20037;-70
2022/07/24 07:09:58;;;;;;;5.38;2.75;;;20.10;99.90;;;;;;5042886;28;20028;-70
2022/07/24 07:12:23;;;;;;;4.15;2.10;;;20.20;99.90;;;;;;5030852;28;20163;-71
2022/07/24 07:14:49;;;;;;;4.18;2.17;;;20.30;99.90;;;;;;5040836;28;20033;-71
2022/07/24 07:17:17;;;;;;;5.47;2.38;;;20.40;99.90;;;;;;5046593;28;20112;-71
2022/07/24 07:19:44;;;;;;;5.40;2.30;;;20.60;99.90;;;;;;5045119;28;20318;-71
2022/07/24 07:22:10;;;;;;;3.45;2.00;;;20.70;99.90;;;;;;5024184;28;20082;-72
2022/07/24 07:24:36;;;;;;;4.22;2.28;;;20.80;99.90;;;;;;5043547;28;20028;-72
2022/07/24 07:27:02;;;;;;;3.45;2.00;;;20.90;99.90;;;;;;5038522;28;20044;-71
2022/07/24 07:29:27;;;;;;;3.80;2.00;;;21.00;99.90;;;;;;5038357;28;20037;-72
2022/07/24 07:31:53;;;;;;;4.35;2.17;;;21.00;99.90;;;;;;5043284;28;20032;-72
2022/07/24 07:34:19;;;;;;;3.65;2.42;;;21.00;99.90;;;;;;5040163;28;20056;-72
2022/07/24 07:36:44;;;;;;;5.38;2.40;;;20.90;99.90;;;;;;5037428;28;20033;-71
2022/07/24 07:39:10;;;;;;;5.05;2.30;;;20.90;99.90;;;;;;5034570;28;20069;-69
2022/07/24 07:41:36;;;;;;;6.28;2.53;;;20.90;99.90;;;;;;5043620;28;20190;-68
2022/07/24 07:44:02;;;;;;;8.13;2.10;;;20.90;99.90;;;;;;5042934;28;20825;-69
2022/07/24 07:46:28;;;;;;;4.18;2.20;;;21.00;99.90;;;;;;5038069;28;20033;-69
2022/07/24 07:48:54;;;;;;;4.55;2.40;;;21.10;99.90;;;;;;5043430;28;20733;-69
2022/07/24 07:51:20;;;;;;;5.93;2.33;;;21.20;99.90;;;;;;5046960;28;20483;-69
2022/07/24 07:53:46;;;;;;;4.90;2.03;;;21.30;99.90;;;;;;5043976;28;20048;-68
2022/07/24 07:56:11;;;;;;;5.47;2.53;;;21.40;99.90;;;;;;5043492;28;20037;-68
2022/07/24 07:58:37;;;;;;;3.38;1.92;;;21.40;99.90;;;;;;5042443;28;20402;-67
2022/07/24 08:01:03;;;;;;;5.25;1.98;;;21.30;99.90;;;;;;5044986;28;20032;-69
2022/07/24 08:03:29;;;;;;;4.07;2.15;;;21.40;99.90;;;;;;5035537;28;20034;-67
2022/07/24 08:05:55;;;;;;;3.53;1.90;;;21.50;99.90;;;;;;5041675;28;20057;-68
2022/07/24 08:08:21;;;;;;;3.47;2.05;;;21.60;99.90;;;;;;5041278;28;20618;-67
2022/07/24 08:10:46;;;;;;;3.60;2.10;;;21.60;99.90;;;;;;5041223;28;20029;-66
2022/07/24 08:13:14;;;;;;;3.58;2.35;;;21.60;99.90;;;;;;5042255;28;20037;-67
2022/07/24 08:15:41;;;;;;;3.90;2.20;;;21.60;99.90;;;;;;5044570;28;20479;-68
2022/07/24 08:18:07;;;;;;;5.40;2.40;;;21.80;99.90;;;;;;5045176;28;20036;-66
2022/07/24 08:20:33;;;;;;;4.95;2.47;;;21.90;99.90;;;;;;5044218;28;20765;-68
2022/07/24 08:22:59;;;;;;;3.67;1.92;;;21.90;99.90;;;;;;5044437;28;20053;-67
2022/07/24 08:25:26;;;;;;;3.70;2.17;;;21.90;99.90;;;;;;5038838;28;20040;-66
2022/07/24 08:27:51;;;;;;;4.72;2.20;;;22.00;99.90;;;;;;5049105;28;20060;-67
2022/07/24 08:30:18;;;;;;;3.25;1.92;;;21.90;99.90;;;;;;5043825;28;20029;-67
2022/07/24 08:32:44;;;;;;;5.90;2.30;;;21.90;99.90;;;;;;5036518;28;20036;-68
2022/07/24 08:35:11;;;;;;;3.80;1.92;;;21.90;99.90;;;;;;5049590;28;20029;-67
2022/07/24 08:37:39;;;;;;;3.70;2.10;;;22.00;99.90;;;;;;5045984;28;20414;-68
2022/07/24 08:40:06;;;;;;;4.55;2.10;;;21.90;99.90;;;;;;5047395;28;20029;-68
2022/07/24 08:42:32;;;;;;;7.03;2.30;;;22.00;99.90;;;;;;5033078;28;20036;-69
2022/07/24 08:44:57;;;;;;;5.50;2.10;;;22.30;99.90;;;;;;5021779;28;20028;-69
2022/07/24 08:47:25;;;;;;;4.40;2.03;;;22.40;99.90;;;;;;5037265;28;20100;-67
2022/07/24 08:49:54;;;;;;;6.70;2.50;;;22.30;99.90;;;;;;5038867;28;20778;-68
2022/07/24 08:52:24;;;;;;;4.22;2.35;;;22.30;99.90;;;;;;5024574;28;20128;-68
2022/07/24 08:54:49;;;;;;;;;;;22.40;99.90;;;;;;5041303;28;20584;-68
2022/07/24 08:57:15;;;;;;;3.72;2.10;;;22.60;99.90;;;;;;5036894;28;20417;-68
2022/07/24 08:59:41;;;;;;;4.63;2.28;;;22.60;99.90;;;;;;5044228;28;20036;-68
2022/07/24 09:02:07;;;;;;;5.00;2.10;;;22.60;99.90;;;;;;5034665;28;20047;-71
2022/07/24 09:04:40;;;;;;;3.53;1.92;;;22.50;99.90;;;;;;5043728;28;20064;-72
2022/07/24 09:07:06;;;;;;;4.43;2.00;;;22.50;99.90;;;;;;5032384;28;20033;-71
2022/07/24 09:09:32;;;;;;;3.70;1.98;;;22.60;99.90;;;;;;5034904;28;20091;-73
2022/07/24 09:12:09;;;;;;;3.13;1.98;;;22.70;99.90;;;;;;5036824;28;20136;-71
2022/07/24 09:14:37;;;;;;;4.18;1.75;;;22.60;99.90;;;;;;5040172;28;20041;-73
2022/07/24 09:17:06;;;;;;;3.50;1.58;;;22.60;99.90;;;;;;5034495;28;20072;-72
2022/07/24 09:19:45;;;;;;;;;;;22.60;99.90;;;;;;5040795;28;20053;-72
2022/07/24 09:22:20;;;;;;;4.53;1.90;;;22.60;99.90;;;;;;5035122;28;20338;-71
2022/07/24 09:24:45;;;;;;;4.18;1.77;;;22.70;99.90;;;;;;5034862;28;20523;-73
2022/07/24 09:27:14;;;;;;;4.47;1.85;;;22.90;99.90;;;;;;5038750;28;20057;-70
2022/07/24 09:29:40;;;;;;;3.83;2.00;;;23.10;99.90;;;;;;5041035;28;20036;-72
2022/07/24 09:32:05;;;;;;;2.80;1.70;;;23.10;99.90;;;;;;5038070;28;20467;-72
2022/07/24 09:34:38;;;;;;;4.38;1.88;;;23.10;99.80;;;;;;5050414;28;20153;-72
2022/07/24 09:37:07;;;;;;;4.32;1.90;;;23.10;99.90;;;;;;5049224;28;20036;-73
2022/07/24 09:39:35;;;;;;;3.03;1.90;;;23.10;99.90;;;;;;5055401;28;20493;-71
2022/07/24 09:42:03;;;;;;;3.72;1.80;;;23.20;99.40;;;;;;5046795;28;20033;-72
2022/07/24 09:44:32;;;;;;;4.25;1.70;;;23.30;99.70;;;;;;5043212;28;20047;-73
2022/07/24 09:47:02;;;;;;;3.20;1.58;;;23.40;99.90;;;;;;5046524;28;20140;-72
2022/07/24 09:49:29;;;;;;;3.53;2.00;;;23.50;98.80;;;;;;5051270;28;20040;-72
2022/07/24 09:52:16;;;;;;;4.57;2.10;;;23.50;99.80;;;;;;5054207;28;20031;-70
2022/07/24 09:54:48;;;;;;;2.80;1.75;;;23.70;99.60;;;;;;5039250;28;20025;-72
2022/07/24 09:57:19;;;;;;;3.75;1.70;;;23.80;98.60;;;;;;5048595;28;20063;-71
2022/07/24 09:59:50;;;;;;;3.28;1.60;;;23.70;98.70;;;;;;5050416;28;20063;-71
2022/07/24 10:02:19;;;;;;;4.75;1.80;;;23.80;99.80;;;;;;5048582;28;20040;-73
2022/07/24 10:04:46;;;;;;;4.70;1.98;;;23.80;98.90;;;;;;5043504;28;20047;-73
2022/07/24 10:07:15;;;;;;;2.75;1.63;;;23.90;99.30;;;;;;5037462;28;20057;-70
2022/07/24 10:09:43;;;;;;;4.75;1.90;;;24.00;98.80;;;;;;5036361;28;20125;-69
2022/07/24 10:12:29;;;;;;;4.35;1.50;;;24.20;98.80;;;;;;5039436;28;20037;-69
2022/07/24 10:14:57;;;;;;;3.60;1.77;;;24.30;98.00;;;;;;5029519;28;20026;-68
2022/07/24 10:17:41;;;;;;;2.92;1.73;;;24.30;97.70;;;;;;5045840;28;20108;-68
2022/07/24 10:20:08;;;;;;;3.90;1.65;;;24.10;97.90;;;;;;5041157;28;20150;-70
2022/07/24 10:23:01;;;;;;;4.72;2.00;;;24.00;98.60;;;;;;5042087;28;20675;-70
2022/07/24 10:25:29;;;;;;;3.67;1.52;;;24.10;98.60;;;;;;5036394;28;20044;-71
2022/07/24 10:28:01;;;;;;;4.53;1.80;;;24.20;98.00;;;;;;5042626;28;20107;-69
2022/07/24 10:30:28;;;;;;;3.65;1.48;;;24.20;97.20;;;;;;5047945;28;20135;-70
2022/07/24 10:32:54;;;;;;;3.22;1.60;;;24.10;97.60;;;;;;5047807;28;20159;-70
2022/07/24 10:35:26;;;;;;;4.28;1.70;;;24.10;98.20;;;;;;5042487;28;20058;-68
2022/07/24 10:38:02;;;;;;;4.05;1.98;;;24.00;97.70;;;;;;5037701;28;20509;-68
2022/07/24 10:40:42;;;;;;;2.67;1.50;;;23.90;97.60;;;;;;5039187;28;20025;-67
2022/07/24 10:43:11;;;;;;;3.00;1.50;;;23.80;97.80;;;;;;5034622;28;20029;-66
2022/07/24 10:45:43;;;;;;;3.55;1.55;;;23.90;98.20;;;;;;5041254;28;20091;-69
2022/07/24 10:48:25;;;;;;;4.03;1.50;;;24.10;97.50;;;;;;5036302;28;20083;-69
2022/07/24 10:50:59;;;;;;;3.13;1.55;;;24.30;97.40;;;;;;5045289;28;20028;-69
2022/07/24 10:53:31;;;;;;;5.55;1.70;;;24.60;97.70;;;;;;5033667;28;20617;-68
2022/07/24 10:56:17;;;;;;;4.47;1.52;;;24.80;96.90;;;;;;5036905;28;20173;-71
2022/07/24 10:59:04;;;;;;;2.45;1.40;;;24.90;96.00;;;;;;5046900;28;20135;-72
2022/07/24 11:01:45;;;;;;;2.45;1.40;;;24.90;95.70;;;;;;5050772;28;20033;-72
2022/07/24 11:04:23;;;;;;;2.80;1.42;;;24.80;95.50;;;;;;5040931;28;20069;-72
2022/07/24 11:06:49;;;;;;;4.35;1.30;;;24.80;95.10;;;;;;5046826;28;20029;-72
2022/07/24 11:09:17;;;;;;;2.90;1.60;;;24.80;95.10;;;;;;5042087;28;20398;-71
2022/07/24 11:12:06;;;;;;;2.75;1.40;;;24.80;95.80;;;;;;5043947;28;20632;-70
2022/07/24 11:14:37;;;;;;;1.98;1.30;;;24.80;96.00;;;;;;5043327;28;20079;-71
2022/07/24 11:17:38;;;;;;;2.30;1.45;;;25.10;95.30;;;;;;5043744;28;20064;-72
2022/07/24 11:20:10;;;;;;;2.72;1.23;;;25.20;95.90;;;;;;5050774;28;20025;-72
2022/07/24 11:22:52;;;;;;;4.70;1.58;;;25.40;94.40;;;;;;5037026;28;20033;-71
2022/07/24 11:25:23;;;;;;;2.78;1.40;;;25.70;94.20;;;;;;5038118;28;20044;-73
2022/07/24 11:28:12;;;;;;;3.33;1.40;;;25.40;95.10;;;;;;5033285;28;20036;-72
2022/07/24 11:30:42;;;;;;;2.47;1.20;;;25.50;95.30;;;;;;5051986;28;20048;-73
2022/07/24 11:33:10;;;;;;;11.15;1.52;;;26.00;93.00;;;;;;5029913;28;20499;-71
2022/07/24 11:35:37;;;;;;;2.92;1.20;;;26.70;92.30;;;;;;5040851;28;20029;-72
2022/07/24 11:38:05;;;;;;;3.80;1.33;;;26.60;92.20;;;;;;5034619;28;20074;-71
2022/07/24 11:40:32;;;;;;;2.97;1.38;;;26.40;92.40;;;;;;5035164;28;20033;-72
2022/07/24 11:43:00;;;;;;;1.60;1.30;;;26.50;92.20;;;;;;5041310;28;20414;-72
2022/07/24 11:45:26;;;;;;;4.22;1.42;;;26.70;91.50;;;;;;5036164;28;20025;-73
2022/07/24 11:47:54;;;;;;;2.65;1.30;;;26.90;91.00;;;;;;5034403;28;20068;-70
2022/07/24 11:50:22;;;;;;;4.28;1.58;;;26.70;88.60;;;;;;5033122;28;20041;-71
2022/07/24 11:52:48;;;;;;;2.70;1.20;;;26.60;90.20;;;;;;5038632;28;20100;-70
2022/07/24 11:55:17;;;;;;;2.33;1.10;;;26.70;90.40;;;;;;5034605;28;20033;-68
2022/07/24 11:57:51;;;;;;;3.75;1.40;;;26.90;88.00;;;;;;5034441;28;20047;-69
2022/07/24 12:00:20;;;;;;;3.85;1.30;;;26.80;90.40;;;;;;5042615;28;20029;-71
2022/07/24 12:02:47;;;;;;;2.60;1.20;;;26.70;86.50;;;;;;5021369;28;20024;-70
2022/07/24 12:05:13;;;;;;;2.03;1.10;;;26.50;90.50;;;;;;5025266;28;20082;-70
2022/07/24 12:07:39;;;;;;;2.97;1.20;;;26.60;89.10;;;;;;5039914;28;20033;-69
2022/07/24 12:10:05;;;;;;;4.45;1.10;;;26.40;89.10;;;;;;5018558;28;20039;-71
2022/07/24 12:12:34;;;;;;;2.55;1.30;;;26.30;91.50;;;;;;5033809;28;20127;-69
2022/07/24 12:15:11;;;;;;;3.00;1.10;;;26.30;90.20;;;;;;5038134;28;20033;-68
2022/07/24 12:18:06;;;;;;;2.50;1.10;;;26.20;89.90;;;;;;5028611;28;20064;-72
2022/07/24 12:20:43;;;;;;;2.00;1.00;;;26.20;90.80;;;;;;5043402;28;20028;-70
2022/07/24 12:23:11;;;;;;;3.00;1.40;;;26.10;90.70;;;;;;5036096;28;20036;-71
2022/07/24 12:25:38;;;;;;;4.20;1.33;;;26.00;91.10;;;;;;5033378;28;20053;-71
2022/07/24 12:28:09;;;;;;;2.63;1.20;;;25.80;91.10;;;;;;5038044;28;20052;-72
2022/07/24 12:30:40;;;;;;;5.30;1.38;;;25.60;90.90;;;;;;5039986;28;20761;-70
2022/07/24 12:33:08;;;;;;;2.95;1.30;;;25.40;91.60;;;;;;5035160;28;20037;-69
2022/07/24 12:35:55;;;;;;;2.75;1.33;;;25.50;90.90;;;;;;5036768;28;20622;-70
2022/07/24 12:38:29;;;;;;;2.50;1.33;;;25.50;91.60;;;;;;5039562;28;20037;-69
2022/07/24 12:41:04;;;;;;;2.65;1.15;;;25.70;90.60;;;;;;5035981;28;20383;-69
2022/07/24 12:43:30;;;;;;;3.03;1.20;;;26.60;87.50;;;;;;5036358;28;20037;-68
2022/07/24 12:46:07;;;;;;;2.22;1.13;;;26.60;83.80;;;;;;5038345;28;20391;-68
2022/07/24 12:48:33;;;;;;;3.58;1.10;;;26.50;84.60;;;;;;5036517;28;20049;-66
2022/07/24 12:51:03;;;;;;;2.95;1.10;;;26.30;85.00;;;;;;5038490;28;20033;-67